Time;durP1;ratioP1;P1;durP2;ratioP2;P2;SDS_P1;SDS_P2;PMS_P1;PMS_P2;Temp;Humidity;BMP_temperature;BMP_pressure;BME280_temperature;BME280_humidity;BME280_pressure;Samples;Min_cycle;Max_cycle;Signal;HPM_P1;HPM_P2
2022/10/29 00:01:43;;;;;;;15.37;7.87;;;16.80;99.90;;;;;;6224284;23;20527;-69
2022/10/29 00:04:09;;;;;;;12.47;7.30;;;16.80;99.90;;;;;;6224124;23;20147;-69
2022/10/29 00:06:35;;;;;;;9.40;7.53;;;16.90;99.90;;;;;;6224302;23;20154;-68
2022/10/29 00:09:01;;;;;;;9.90;7.43;;;16.90;99.90;;;;;;6223709;23;20167;-68
2022/10/29 00:11:26;;;;;;;9.70;6.87;;;16.90;99.90;;;;;;6211913;23;20181;-68
2022/10/29 00:13:58;;;;;;;7.50;6.40;;;16.90;99.90;;;;;;6224172;23;20151;-68
2022/10/29 00:16:28;;;;;;;7.07;6.27;;;16.90;99.90;;;;;;6212295;23;20143;-68
2022/10/29 00:18:55;;;;;;;7.47;6.80;;;17.00;99.90;;;;;;6223783;23;20183;-68
2022/10/29 00:21:23;;;;;;;12.87;7.70;;;17.00;99.90;;;;;;6212169;23;20151;-68
2022/10/29 00:23:50;;;;;;;11.37;8.77;;;17.00;99.90;;;;;;6223710;23;20510;-68
2022/10/29 00:26:17;;;;;;;9.13;8.33;;;17.00;99.90;;;;;;6223830;23;20147;-68
2022/10/29 00:28:42;;;;;;;10.23;6.80;;;17.00;99.90;;;;;;6223216;23;20190;-68
2022/10/29 00:31:15;;;;;;;13.90;7.37;;;17.00;99.90;;;;;;6223845;23;20146;-68
2022/10/29 00:33:41;;;;;;;8.13;7.33;;;17.00;99.90;;;;;;6212057;23;20225;-68
2022/10/29 00:36:12;;;;;;;12.43;7.07;;;17.00;99.90;;;;;;6222834;23;20158;-68
2022/10/29 00:38:38;;;;;;;12.40;9.30;;;17.00;99.90;;;;;;6211739;23;20518;-68
2022/10/29 00:41:06;;;;;;;11.17;7.93;;;16.90;99.90;;;;;;6211643;23;20183;-68
2022/10/29 00:43:33;;;;;;;11.10;7.27;;;16.90;99.90;;;;;;6223625;23;20150;-68
2022/10/29 00:46:04;;;;;;;8.83;7.43;;;16.90;99.90;;;;;;6223550;23;20143;-68
2022/10/29 00:48:33;;;;;;;7.37;6.77;;;16.90;99.90;;;;;;6212138;23;20629;-68
2022/10/29 00:51:02;;;;;;;11.10;7.57;;;16.90;99.90;;;;;;6223374;23;20170;-68
2022/10/29 00:53:32;;;;;;;8.07;7.27;;;16.80;99.90;;;;;;6212319;23;20234;-68
2022/10/29 00:55:58;;;;;;;12.43;7.40;;;16.80;99.90;;;;;;6223628;23;20181;-68
2022/10/29 00:58:24;;;;;;;10.13;6.93;;;16.60;99.90;;;;;;6211821;23;20229;-68
2022/10/29 01:00:50;;;;;;;6.90;6.30;;;16.60;99.90;;;;;;6223063;23;20181;-68
2022/10/29 01:03:15;;;;;;;11.77;6.77;;;16.50;99.90;;;;;;6223695;23;20587;-68
2022/10/29 01:05:42;;;;;;;13.03;7.23;;;16.50;99.90;;;;;;6224204;23;20505;-68
2022/10/29 01:08:09;;;;;;;6.47;5.97;;;16.40;99.90;;;;;;6212664;23;20186;-68
2022/10/29 01:11:00;;;;;;;13.37;7.00;;;16.30;99.90;;;;;;6224922;23;20485;-68
2022/10/29 01:13:53;;;;;;;13.67;7.23;;;16.20;99.90;;;;;;6225649;23;20136;-68
2022/10/29 01:16:48;;;;;;;9.97;6.93;;;16.10;99.90;;;;;;6225596;23;20142;-68
2022/10/29 01:19:26;;;;;;;8.37;7.50;;;16.00;99.90;;;;;;6187868;23;20240;-68
2022/10/29 01:21:59;;;;;;;10.57;7.00;;;15.90;99.90;;;;;;6225432;23;20131;-68
2022/10/29 01:24:50;;;;;;;8.87;7.80;;;15.80;99.90;;;;;;6225400;23;20189;-68
2022/10/29 01:27:50;;;;;;;16.33;6.77;;;15.70;99.90;;;;;;6213770;23;20151;-68
2022/10/29 01:30:39;;;;;;;13.03;7.33;;;15.70;99.90;;;;;;6213867;23;20217;-68
2022/10/29 01:33:14;;;;;;;8.83;7.97;;;15.70;99.90;;;;;;6225359;23;20614;-68
2022/10/29 01:35:49;;;;;;;8.40;6.90;;;15.70;99.90;;;;;;6224245;23;20205;-68
2022/10/29 01:38:23;;;;;;;12.13;7.00;;;15.70;99.90;;;;;;6225156;23;20182;-68
2022/10/29 01:41:00;;;;;;;10.40;7.10;;;15.70;99.90;;;;;;6225183;23;20145;-68
2022/10/29 01:43:40;;;;;;;9.30;8.20;;;15.80;99.90;;;;;;6225391;23;20131;-68
2022/10/29 01:46:31;;;;;;;9.90;7.20;;;15.70;99.90;;;;;;6225677;23;20162;-68
2022/10/29 01:49:03;;;;;;;7.97;7.13;;;15.80;99.90;;;;;;6225317;23;20290;-68
2022/10/29 01:51:33;;;;;;;10.60;6.90;;;15.70;99.90;;;;;;6213558;23;20229;-68
2022/10/29 01:54:00;;;;;;;7.77;6.83;;;15.70;99.90;;;;;;6225226;23;20175;-68
2022/10/29 01:56:25;;;;;;;8.70;7.80;;;15.60;99.90;;;;;;6225146;23;20603;-68
2022/10/29 01:58:56;;;;;;;8.53;7.67;;;15.60;99.90;;;;;;6213381;23;20193;-68
2022/10/29 02:01:46;;;;;;;7.73;6.97;;;15.60;99.90;;;;;;6225062;23;20448;-68
2022/10/29 02:04:45;;;;;;;8.70;7.77;;;15.60;99.90;;;;;;6213385;23;20151;-68
2022/10/29 02:07:43;;;;;;;11.10;8.03;;;15.70;99.90;;;;;;6225347;23;20147;-68
2022/10/29 02:10:18;;;;;;;8.60;7.80;;;15.70;99.90;;;;;;6213002;23;20610;-68
2022/10/29 02:12:52;;;;;;;10.60;8.23;;;15.70;99.90;;;;;;6224844;23;20503;-68
2022/10/29 02:15:36;;;;;;;9.67;8.37;;;15.70;99.90;;;;;;6213445;23;20214;-68
2022/10/29 02:18:05;;;;;;;10.57;8.07;;;15.70;99.90;;;;;;6212989;23;20190;-68
2022/10/29 02:20:31;;;;;;;14.13;7.83;;;15.70;99.90;;;;;;6212918;23;20234;-68
2022/10/29 02:22:57;;;;;;;14.37;7.57;;;15.70;99.90;;;;;;6224883;23;20222;-68
2022/10/29 02:25:22;;;;;;;9.23;8.20;;;15.80;99.90;;;;;;6224733;23;20214;-68
2022/10/29 02:27:48;;;;;;;14.30;7.93;;;15.80;99.90;;;;;;6212966;23;20209;-68
2022/10/29 02:30:15;;;;;;;10.30;8.27;;;15.70;99.90;;;;;;6224430;23;20163;-68
2022/10/29 02:32:40;;;;;;;13.83;7.63;;;15.70;99.90;;;;;;6225025;23;20165;-68
2022/10/29 02:35:07;;;;;;;14.33;8.80;;;15.70;99.90;;;;;;6212558;23;20163;-68
2022/10/29 02:37:32;;;;;;;10.13;7.87;;;15.70;99.90;;;;;;6224418;23;20257;-68
2022/10/29 02:39:58;;;;;;;10.87;8.30;;;15.60;99.90;;;;;;6212998;23;20182;-68
2022/10/29 02:42:24;;;;;;;11.63;8.30;;;15.60;99.90;;;;;;6224894;23;20143;-68
2022/10/29 02:44:49;;;;;;;9.60;7.63;;;15.60;99.90;;;;;;6213192;23;20186;-68
2022/10/29 02:47:15;;;;;;;9.93;7.67;;;15.60;99.90;;;;;;6224580;23;20604;-68
2022/10/29 02:49:40;;;;;;;11.40;7.77;;;15.60;99.90;;;;;;6224766;23;20221;-68
2022/10/29 02:52:06;;;;;;;10.07;7.50;;;15.60;99.90;;;;;;6224619;23;20147;-68
2022/10/29 02:54:32;;;;;;;10.43;7.93;;;15.60;99.90;;;;;;6224598;23;20146;-68
2022/10/29 02:56:57;;;;;;;12.93;8.43;;;15.50;99.90;;;;;;6224572;23;20143;-68
2022/10/29 02:59:23;;;;;;;10.50;8.13;;;15.50;99.90;;;;;;6224718;23;20185;-68
2022/10/29 03:01:48;;;;;;;12.70;7.83;;;15.40;99.90;;;;;;6212835;23;20625;-68
2022/10/29 03:04:14;;;;;;;9.03;7.80;;;15.40;99.90;;;;;;6224508;23;20157;-68
2022/10/29 03:06:40;;;;;;;10.53;8.03;;;15.40;99.90;;;;;;6212617;23;20147;-68
2022/10/29 03:09:05;;;;;;;12.30;8.13;;;15.40;99.90;;;;;;6224418;23;20171;-68
2022/10/29 03:11:31;;;;;;;9.17;8.20;;;15.30;99.90;;;;;;6224410;23;20151;-68
2022/10/29 03:13:57;;;;;;;10.03;8.10;;;15.20;99.90;;;;;;6224627;23;20488;-68
2022/10/29 03:16:22;;;;;;;8.83;8.03;;;15.20;99.90;;;;;;6224404;23;20155;-68
2022/10/29 03:18:48;;;;;;;11.27;8.13;;;15.10;99.90;;;;;;6224185;23;20189;-68
2022/10/29 03:21:13;;;;;;;10.83;6.83;;;15.00;99.90;;;;;;6224191;23;20193;-68
2022/10/29 03:23:39;;;;;;;7.87;6.83;;;15.00;99.90;;;;;;6212775;23;20178;-68
2022/10/29 03:26:05;;;;;;;8.67;7.10;;;15.00;99.90;;;;;;6212649;23;20162;-68
2022/10/29 03:28:30;;;;;;;8.83;7.73;;;14.90;99.90;;;;;;6221989;22;20207;-65
2022/10/29 03:30:57;;;;;;;11.13;7.90;;;14.80;99.90;;;;;;6223231;23;20175;-66
2022/10/29 03:33:25;;;;;;;8.90;7.93;;;14.80;99.90;;;;;;6224088;23;20170;-68
2022/10/29 03:35:56;;;;;;;7.97;7.13;;;14.80;99.90;;;;;;6223980;23;20606;-66
2022/10/29 03:38:21;;;;;;;11.40;7.47;;;14.80;99.90;;;;;;6223932;23;20504;-66
2022/10/29 03:40:47;;;;;;;11.63;8.90;;;14.80;99.90;;;;;;6223309;23;20217;-66
2022/10/29 03:43:12;;;;;;;8.67;7.47;;;14.70;99.90;;;;;;6224040;23;20175;-66
2022/10/29 03:45:38;;;;;;;14.23;7.80;;;14.80;99.90;;;;;;6223711;23;20590;-66
2022/10/29 03:48:04;;;;;;;10.70;7.70;;;14.80;99.90;;;;;;6223867;23;20158;-66
2022/10/29 03:50:30;;;;;;;11.10;7.93;;;14.80;99.90;;;;;;6223289;23;20618;-66
2022/10/29 03:52:55;;;;;;;12.93;7.53;;;14.70;99.90;;;;;;6212075;23;20151;-66
2022/10/29 03:55:21;;;;;;;14.40;8.20;;;14.70;99.90;;;;;;6223841;23;20151;-66
2022/10/29 03:57:46;;;;;;;11.03;7.73;;;14.70;99.90;;;;;;6223673;23;20614;-66
2022/10/29 04:00:12;;;;;;;13.63;8.83;;;14.70;99.90;;;;;;6223349;23;20163;-66
2022/10/29 04:02:38;;;;;;;11.73;7.10;;;14.70;99.90;;;;;;6223574;23;20234;-66
2022/10/29 04:05:04;;;;;;;17.27;8.70;;;14.70;99.90;;;;;;6223688;23;20175;-66
2022/10/29 04:07:29;;;;;;;13.80;7.50;;;14.70;99.90;;;;;;6223690;23;20150;-66
2022/10/29 04:09:55;;;;;;;10.37;7.20;;;14.70;99.90;;;;;;6223061;23;20606;-66
2022/10/29 04:12:20;;;;;;;10.83;7.20;;;14.70;99.90;;;;;;6223595;23;20230;-66
2022/10/29 04:14:47;;;;;;;10.50;7.47;;;14.70;99.90;;;;;;6223307;23;20157;-66
2022/10/29 04:17:13;;;;;;;12.50;8.20;;;14.70;99.90;;;;;;6223667;23;20225;-66
2022/10/29 04:19:39;;;;;;;7.93;7.13;;;14.70;99.90;;;;;;6223181;23;20233;-66
2022/10/29 04:22:05;;;;;;;10.17;8.13;;;14.70;99.90;;;;;;6223540;23;20145;-66
2022/10/29 04:24:31;;;;;;;8.40;7.70;;;14.80;99.90;;;;;;6223473;23;20218;-66
2022/10/29 04:26:56;;;;;;;11.63;8.90;;;14.80;99.90;;;;;;6223551;23;20582;-66
2022/10/29 04:29:22;;;;;;;11.87;8.47;;;14.80;99.90;;;;;;6223427;23;20186;-66
2022/10/29 04:31:47;;;;;;;10.80;7.50;;;14.80;99.90;;;;;;6223372;23;20225;-66
2022/10/29 04:34:13;;;;;;;13.40;8.20;;;14.80;99.90;;;;;;6223338;23;20598;-66
2022/10/29 04:36:39;;;;;;;12.10;8.27;;;14.80;99.90;;;;;;6223194;23;20237;-66
2022/10/29 04:39:04;;;;;;;8.10;7.30;;;14.80;99.90;;;;;;6223284;23;20257;-66
2022/10/29 04:41:30;;;;;;;9.73;7.87;;;14.80;99.90;;;;;;6223206;23;20154;-66
2022/10/29 04:43:56;;;;;;;9.07;7.53;;;14.80;99.90;;;;;;6223758;23;20574;-66
2022/10/29 04:46:21;;;;;;;12.00;8.67;;;14.80;99.90;;;;;;6223552;23;20405;-66
2022/10/29 04:48:47;;;;;;;9.37;8.47;;;14.80;99.90;;;;;;6223462;23;20179;-66
2022/10/29 04:51:20;;;;;;;11.93;8.20;;;14.80;99.90;;;;;;6223185;23;20174;-66
2022/10/29 04:53:46;;;;;;;10.70;7.40;;;14.90;99.90;;;;;;6223252;23;20154;-66
2022/10/29 04:56:11;;;;;;;10.63;8.83;;;14.90;99.90;;;;;;6223488;23;20146;-66
2022/10/29 04:58:37;;;;;;;10.47;7.90;;;14.90;99.90;;;;;;6222970;23;20193;-66
2022/10/29 05:01:03;;;;;;;8.83;7.40;;;14.90;99.90;;;;;;6223083;23;20151;-66
2022/10/29 05:03:32;;;;;;;11.03;8.00;;;14.90;99.90;;;;;;6223216;23;20457;-66
2022/10/29 05:06:00;;;;;;;11.00;7.17;;;14.90;99.90;;;;;;6211831;23;20162;-66
2022/10/29 05:08:26;;;;;;;9.17;8.00;;;14.90;99.90;;;;;;6223221;23;20155;-66
2022/10/29 05:10:52;;;;;;;9.63;7.53;;;14.90;99.90;;;;;;6223040;23;20158;-66
2022/10/29 05:13:17;;;;;;;11.83;8.27;;;14.90;99.90;;;;;;6223256;23;20146;-66
2022/10/29 05:15:49;;;;;;;10.73;7.13;;;14.90;99.90;;;;;;6223170;23;20159;-66
2022/10/29 05:18:15;;;;;;;11.23;7.87;;;14.80;99.90;;;;;;6223037;23;20190;-66
2022/10/29 05:20:41;;;;;;;17.40;8.37;;;14.80;99.90;;;;;;6222966;23;20466;-66
2022/10/29 05:23:08;;;;;;;18.03;9.00;;;14.80;99.90;;;;;;6223235;23;20599;-66
2022/10/29 05:25:38;;;;;;;13.83;8.30;;;14.80;99.90;;;;;;6223245;23;20155;-66
2022/10/29 05:28:05;;;;;;;9.70;8.70;;;14.80;99.90;;;;;;6211607;23;20525;-66
2022/10/29 05:30:32;;;;;;;10.57;8.00;;;14.70;99.90;;;;;;6222766;23;20576;-66
2022/10/29 05:32:58;;;;;;;10.97;7.80;;;14.80;99.90;;;;;;6223622;23;20174;-66
2022/10/29 05:35:24;;;;;;;7.73;6.83;;;14.80;99.90;;;;;;6223199;23;20143;-66
2022/10/29 05:37:54;;;;;;;11.23;7.63;;;14.80;99.90;;;;;;6223103;23;20186;-66
2022/10/29 05:40:21;;;;;;;15.43;7.80;;;14.80;99.90;;;;;;6222522;23;20220;-66
2022/10/29 05:42:47;;;;;;;10.50;8.20;;;14.80;99.90;;;;;;6222769;23;20143;-66
2022/10/29 05:45:13;;;;;;;11.60;7.63;;;14.80;99.90;;;;;;6223153;23;20143;-66
2022/10/29 05:47:38;;;;;;;16.60;7.50;;;14.70;99.90;;;;;;6223324;23;20151;-66
2022/10/29 05:50:04;;;;;;;9.57;7.00;;;14.70;99.90;;;;;;6222748;23;20173;-66
2022/10/29 05:52:30;;;;;;;11.20;7.33;;;14.60;99.90;;;;;;6223349;23;20150;-66
2022/10/29 05:54:56;;;;;;;11.97;7.20;;;14.60;99.90;;;;;;6224338;23;20200;-66
2022/10/29 05:57:21;;;;;;;8.87;7.07;;;14.60;99.90;;;;;;6225362;23;20702;-66
2022/10/29 05:59:47;;;;;;;8.13;7.47;;;14.60;99.90;;;;;;6224809;23;20194;-66
2022/10/29 06:02:12;;;;;;;12.27;8.83;;;14.60;99.90;;;;;;6224962;23;20150;-66
2022/10/29 06:04:38;;;;;;;11.80;8.40;;;14.60;99.90;;;;;;6224634;23;20151;-66
2022/10/29 06:07:04;;;;;;;12.77;8.90;;;14.60;99.90;;;;;;6224895;23;20177;-66
2022/10/29 06:09:30;;;;;;;14.13;9.20;;;14.70;99.90;;;;;;6225084;23;20197;-66
2022/10/29 06:11:56;;;;;;;10.93;7.57;;;14.80;99.90;;;;;;6223884;23;20174;-66
2022/10/29 06:14:22;;;;;;;9.03;7.67;;;14.90;99.90;;;;;;6224067;23;20151;-66
2022/10/29 06:16:47;;;;;;;10.30;7.47;;;14.90;99.90;;;;;;6224358;23;20150;-66
2022/10/29 06:19:13;;;;;;;9.20;7.17;;;15.00;99.90;;;;;;6224255;23;20189;-67
2022/10/29 06:21:39;;;;;;;20.03;8.07;;;15.00;99.90;;;;;;6212770;23;20147;-66
2022/10/29 06:24:05;;;;;;;15.27;8.47;;;15.00;99.90;;;;;;6224230;23;20587;-66
2022/10/29 06:26:31;;;;;;;13.20;7.37;;;15.10;99.90;;;;;;6224768;23;20154;-67
2022/10/29 06:28:56;;;;;;;11.47;8.57;;;15.10;99.90;;;;;;6224553;23;20186;-66
2022/10/29 06:31:22;;;;;;;9.60;7.37;;;15.10;99.90;;;;;;6224336;23;20489;-66
2022/10/29 06:33:48;;;;;;;9.60;7.10;;;15.10;99.90;;;;;;6224588;23;20147;-66
2022/10/29 06:36:13;;;;;;;7.33;6.63;;;15.10;99.90;;;;;;6223558;23;20216;-66
2022/10/29 06:38:39;;;;;;;13.73;8.50;;;15.10;99.90;;;;;;6224350;23;20178;-67
2022/10/29 06:41:04;;;;;;;12.77;7.97;;;15.10;99.90;;;;;;6223971;23;20143;-66
2022/10/29 06:43:30;;;;;;;8.33;7.53;;;15.10;99.90;;;;;;6224558;23;20182;-67
2022/10/29 06:45:55;;;;;;;7.97;7.17;;;15.10;99.90;;;;;;6224426;23;20225;-66
2022/10/29 06:48:21;;;;;;;9.20;7.47;;;15.10;99.90;;;;;;6224336;23;20153;-66
2022/10/29 06:50:47;;;;;;;10.37;7.97;;;15.10;99.90;;;;;;6211899;23;20158;-66
2022/10/29 06:53:13;;;;;;;14.83;9.70;;;15.10;99.90;;;;;;6224415;23;20154;-66
2022/10/29 06:55:39;;;;;;;11.13;8.00;;;15.10;99.90;;;;;;6224190;23;20151;-66
2022/10/29 06:58:16;;;;;;;12.13;7.97;;;15.00;99.90;;;;;;6224183;23;20718;-66
2022/10/29 07:00:43;;;;;;;11.33;8.07;;;15.00;99.90;;;;;;6223982;23;20184;-66
2022/10/29 07:03:12;;;;;;;11.77;7.97;;;15.10;99.90;;;;;;6224076;23;20574;-66
2022/10/29 07:05:37;;;;;;;10.03;7.27;;;15.10;99.90;;;;;;6224054;23;20471;-66
2022/10/29 07:08:03;;;;;;;8.93;7.50;;;15.10;99.90;;;;;;6224237;23;20206;-67
2022/10/29 07:10:31;;;;;;;9.47;8.00;;;15.10;99.90;;;;;;6223684;23;20557;-66
2022/10/29 07:12:57;;;;;;;9.70;7.47;;;15.20;99.90;;;;;;6223895;23;20488;-66
2022/10/29 07:15:23;;;;;;;12.67;8.47;;;15.20;99.90;;;;;;6224028;23;20147;-66
2022/10/29 07:18:03;;;;;;;8.07;7.10;;;15.20;99.90;;;;;;6223647;23;20174;-66
2022/10/29 07:20:31;;;;;;;8.07;7.10;;;15.30;99.90;;;;;;6223704;23;20162;-66
2022/10/29 07:22:58;;;;;;;8.33;7.40;;;15.40;99.90;;;;;;6223796;23;20147;-66
2022/10/29 07:25:24;;;;;;;11.70;7.30;;;15.50;99.90;;;;;;6224033;23;20242;-66
2022/10/29 07:27:49;;;;;;;9.07;6.83;;;15.50;99.90;;;;;;6221986;23;20545;-66
2022/10/29 07:30:15;;;;;;;10.63;7.40;;;15.50;99.90;;;;;;6223318;23;20205;-66
2022/10/29 07:32:41;;;;;;;7.97;7.20;;;15.60;99.90;;;;;;6223797;23;20147;-65
2022/10/29 07:35:07;;;;;;;12.33;7.83;;;15.60;99.90;;;;;;6222518;23;20178;-65
2022/10/29 07:37:33;;;;;;;16.53;7.43;;;15.60;99.90;;;;;;6223627;23;20217;-65
2022/10/29 07:39:58;;;;;;;10.70;7.30;;;15.70;99.90;;;;;;6223289;23;20163;-66
2022/10/29 07:42:24;;;;;;;10.53;6.77;;;15.80;99.90;;;;;;6223784;23;20188;-66
2022/10/29 07:44:49;;;;;;;14.00;6.37;;;16.00;99.90;;;;;;6223750;23;20151;-66
2022/10/29 07:47:15;;;;;;;9.67;7.70;;;16.20;99.90;;;;;;6223500;23;20153;-66
2022/10/29 07:49:41;;;;;;;10.53;6.83;;;16.40;99.90;;;;;;6222987;23;20241;-66
2022/10/29 07:52:07;;;;;;;7.17;6.00;;;16.50;99.90;;;;;;6223959;23;20378;-66
2022/10/29 07:54:33;;;;;;;7.33;6.63;;;16.70;99.90;;;;;;6223596;23;20550;-66
2022/10/29 07:56:58;;;;;;;6.77;6.17;;;16.80;99.90;;;;;;6223527;23;20150;-66
2022/10/29 07:59:24;;;;;;;8.30;6.57;;;16.90;99.90;;;;;;6209611;23;20573;-66
2022/10/29 08:01:49;;;;;;;12.27;6.53;;;17.00;99.90;;;;;;6223143;23;20151;-65
2022/10/29 08:04:15;;;;;;;10.10;6.00;;;17.10;99.90;;;;;;6223398;23;20225;-66
2022/10/29 08:06:41;;;;;;;9.77;6.07;;;17.10;99.90;;;;;;6223301;23;20226;-66
2022/10/29 08:09:07;;;;;;;7.90;6.83;;;17.20;99.90;;;;;;6223176;23;20553;-66
2022/10/29 08:11:33;;;;;;;7.60;6.43;;;17.20;99.90;;;;;;6224178;23;20519;-66
2022/10/29 08:13:59;;;;;;;8.80;8.17;;;17.30;99.90;;;;;;6212209;23;20151;-65
2022/10/29 08:16:24;;;;;;;8.37;6.87;;;17.40;99.90;;;;;;6223056;23;20147;-65
2022/10/29 08:18:50;;;;;;;12.67;7.27;;;17.50;99.90;;;;;;6223091;23;20597;-65
2022/10/29 08:21:16;;;;;;;11.53;6.53;;;17.50;99.90;;;;;;6223101;23;20154;-66
2022/10/29 08:23:42;;;;;;;12.07;6.53;;;17.60;99.90;;;;;;6223247;23;20153;-66
2022/10/29 08:26:08;;;;;;;7.93;6.70;;;17.60;99.90;;;;;;6223718;23;20559;-65
2022/10/29 08:28:34;;;;;;;6.73;6.10;;;17.60;99.90;;;;;;6223091;22;20183;-66
2022/10/29 08:30:59;;;;;;;8.97;6.77;;;17.70;99.90;;;;;;6220976;23;20218;-66
2022/10/29 08:33:25;;;;;;;10.80;6.23;;;17.70;99.90;;;;;;6223386;23;20173;-66
2022/10/29 08:35:51;;;;;;;7.20;6.00;;;17.80;99.90;;;;;;6223170;23;20178;-65
2022/10/29 08:38:17;;;;;;;6.23;5.63;;;17.90;99.90;;;;;;6223421;23;20174;-66
2022/10/29 08:40:51;;;;;;;7.67;6.97;;;18.00;99.90;;;;;;6222786;23;20218;-64
2022/10/29 08:43:28;;;;;;;8.53;6.07;;;18.20;99.90;;;;;;6223495;23;20166;-66
2022/10/29 08:45:54;;;;;;;18.67;6.53;;;18.40;99.90;;;;;;6223269;23;20218;-66
2022/10/29 08:48:45;;;;;;;8.33;6.47;;;18.50;99.90;;;;;;6223280;23;20147;-66
2022/10/29 08:51:24;;;;;;;8.63;5.63;;;18.70;99.90;;;;;;6222959;23;20210;-64
2022/10/29 08:53:53;;;;;;;8.83;5.37;;;19.20;99.90;;;;;;6223038;23;20150;-66
2022/10/29 08:56:24;;;;;;;11.97;6.00;;;19.60;99.90;;;;;;6223466;23;20143;-66
2022/10/29 08:59:05;;;;;;;6.50;5.90;;;20.00;99.90;;;;;;6223199;23;20305;-66
2022/10/29 09:01:30;;;;;;;8.50;5.33;;;20.20;99.90;;;;;;6220756;23;20162;-66
2022/10/29 09:03:56;;;;;;;5.30;4.90;;;20.20;99.90;;;;;;6223475;23;20142;-65
2022/10/29 09:06:45;;;;;;;8.63;6.07;;;20.10;99.90;;;;;;6222825;23;20158;-66
2022/10/29 09:09:38;;;;;;;6.53;5.47;;;20.00;99.90;;;;;;6222988;23;20513;-66
2022/10/29 09:12:39;;;;;;;13.50;5.97;;;19.90;99.90;;;;;;6223499;23;20140;-65
2022/10/29 09:15:28;;;;;;;8.40;5.87;;;20.00;99.90;;;;;;6223183;23;20138;-64
2022/10/29 09:18:05;;;;;;;9.73;6.80;;;20.00;99.90;;;;;;6223018;23;20637;-66
2022/10/29 09:20:51;;;;;;;6.33;5.70;;;20.00;99.90;;;;;;6221860;23;20258;-65
2022/10/29 09:23:56;;;;;;;5.30;4.57;;;20.10;99.90;;;;;;6223369;23;20226;-66
2022/10/29 09:26:29;;;;;;;8.53;5.80;;;20.60;99.90;;;;;;6222751;23;20147;-66
2022/10/29 09:29:15;;;;;;;11.50;5.68;;;21.10;99.90;;;;;;6224114;23;20254;-65
2022/10/29 09:31:52;;;;;;;6.30;5.70;;;21.20;99.90;;;;;;6222598;23;20214;-66
2022/10/29 09:34:42;;;;;;;10.80;4.97;;;21.40;99.90;;;;;;6225345;23;20417;-65
2022/10/29 09:37:16;;;;;;;5.00;4.57;;;21.60;99.90;;;;;;6225282;23;20139;-66
2022/10/29 09:39:45;;;;;;;7.68;6.03;;;21.70;99.90;;;;;;6212916;23;20174;-65
2022/10/29 09:42:15;;;;;;;6.15;4.70;;;21.80;99.90;;;;;;6224100;23;20163;-65
2022/10/29 09:44:50;;;;;;;19.35;4.82;;;21.90;99.90;;;;;;6224863;23;20139;-65
2022/10/29 09:47:34;;;;;;;7.43;4.90;;;22.00;99.90;;;;;;6224997;23;20150;-65
2022/10/29 09:50:27;;;;;;;6.78;4.80;;;22.00;99.90;;;;;;6224728;23;20162;-65
2022/10/29 09:52:53;;;;;;;6.95;4.97;;;22.00;99.90;;;;;;6225040;23;20182;-66
2022/10/29 09:55:30;;;;;;;6.07;5.35;;;22.10;99.90;;;;;;6224952;23;20151;-69
2022/10/29 09:57:56;;;;;;;10.60;5.32;;;22.30;99.90;;;;;;6224933;23;20236;-66
2022/10/29 10:00:27;;;;;;;7.45;5.60;;;22.50;99.90;;;;;;6224436;23;20158;-66
2022/10/29 10:02:58;;;;;;;5.25;4.75;;;22.80;99.90;;;;;;6222543;23;20135;-66
2022/10/29 10:05:32;;;;;;;7.70;4.60;;;22.90;99.90;;;;;;6225795;23;20131;-66
2022/10/29 10:08:05;;;;;;;7.85;4.95;;;22.90;99.90;;;;;;6226557;23;20134;-66
2022/10/29 10:10:32;;;;;;;6.30;4.80;;;22.80;99.90;;;;;;6225984;23;20618;-66
2022/10/29 10:13:02;;;;;;;6.57;5.05;;;22.70;99.90;;;;;;6226816;23;20197;-66
2022/10/29 10:15:33;;;;;;;6.95;5.13;;;22.50;99.90;;;;;;6225552;23;20139;-66
2022/10/29 10:18:02;;;;;;;8.90;4.60;;;22.30;99.90;;;;;;6224944;23;20166;-66
2022/10/29 10:20:44;;;;;;;5.53;4.90;;;21.90;99.90;;;;;;6213824;23;20175;-66
2022/10/29 10:23:26;;;;;;;7.43;5.03;;;21.50;99.90;;;;;;6224529;23;20183;-66
2022/10/29 10:25:56;;;;;;;7.83;5.27;;;21.30;99.90;;;;;;6224576;23;20224;-66
2022/10/29 10:28:25;;;;;;;12.23;5.80;;;21.10;99.90;;;;;;6224459;23;20150;-66
2022/10/29 10:31:03;;;;;;;6.47;4.53;;;20.90;99.90;;;;;;6224669;23;20159;-66
2022/10/29 10:33:30;;;;;;;6.13;5.03;;;20.80;99.90;;;;;;6224357;23;20367;-66
2022/10/29 10:36:03;;;;;;;7.30;6.57;;;20.70;99.90;;;;;;6222605;23;20135;-66
2022/10/29 10:38:35;;;;;;;12.27;5.63;;;20.60;99.90;;;;;;6223110;23;20654;-66
2022/10/29 10:41:06;;;;;;;8.80;5.50;;;20.50;99.90;;;;;;6224074;23;20210;-66
2022/10/29 10:43:33;;;;;;;7.77;5.53;;;20.50;99.90;;;;;;6224357;23;20127;-66
2022/10/29 10:46:03;;;;;;;6.53;5.93;;;20.50;99.90;;;;;;6224937;23;20197;-65
2022/10/29 10:48:28;;;;;;;8.53;5.03;;;20.50;99.90;;;;;;6224046;23;20201;-66
2022/10/29 10:51:22;;;;;;;7.43;6.63;;;20.50;99.90;;;;;;6224058;23;20598;-66
2022/10/29 10:53:49;;;;;;;8.00;5.30;;;20.50;99.90;;;;;;6223203;23;20250;-66
2022/10/29 10:56:18;;;;;;;7.97;6.23;;;20.50;99.90;;;;;;6212722;23;20285;-66
2022/10/29 10:58:56;;;;;;;11.87;5.80;;;20.60;99.90;;;;;;6224006;23;20175;-66
2022/10/29 11:01:28;;;;;;;5.80;5.20;;;20.70;99.90;;;;;;6224228;23;20181;-66
2022/10/29 11:04:19;;;;;;;6.63;5.30;;;20.70;99.90;;;;;;6224251;23;20143;-66
2022/10/29 11:06:50;;;;;;;7.33;4.67;;;20.70;99.90;;;;;;6224339;23;20146;-66
2022/10/29 11:09:31;;;;;;;8.23;5.73;;;20.70;99.90;;;;;;6223958;23;20166;-66
2022/10/29 11:12:04;;;;;;;5.53;4.93;;;20.80;99.90;;;;;;6224068;23;20135;-66
2022/10/29 11:14:52;;;;;;;8.97;5.40;;;21.00;99.90;;;;;;6224075;23;20135;-66
2022/10/29 11:17:33;;;;;;;5.07;4.67;;;21.20;99.90;;;;;;6224121;23;20489;-66
2022/10/29 11:20:05;;;;;;;6.95;4.88;;;21.60;99.90;;;;;;6224060;23;20170;-66
2022/10/29 11:22:58;;;;;;;9.50;5.18;;;21.90;99.90;;;;;;6223931;23;20173;-66
2022/10/29 11:25:30;;;;;;;7.32;5.47;;;22.30;99.90;;;;;;6223710;23;20143;-66
2022/10/29 11:28:19;;;;;;;6.60;5.13;;;22.60;99.90;;;;;;6223950;23;20206;-66
2022/10/29 11:30:58;;;;;;;9.40;5.30;;;22.90;99.90;;;;;;6223507;23;20139;-66
2022/10/29 11:33:47;;;;;;;5.82;5.32;;;22.90;99.90;;;;;;6224123;23;20138;-66
2022/10/29 11:36:21;;;;;;;8.95;6.00;;;23.00;99.90;;;;;;6224138;23;20157;-66
2022/10/29 11:38:56;;;;;;;4.97;4.47;;;23.00;99.90;;;;;;6223744;23;20177;-66
2022/10/29 11:41:47;;;;;;;8.48;4.97;;;22.80;99.90;;;;;;6223670;23;20139;-66
2022/10/29 11:44:14;;;;;;;7.82;4.93;;;22.70;99.90;;;;;;6223938;23;20131;-66
2022/10/29 11:47:03;;;;;;;13.48;5.70;;;22.60;99.90;;;;;;6223719;23;20625;-66
2022/10/29 11:49:43;;;;;;;7.35;4.75;;;22.50;99.90;;;;;;6223755;23;20229;-66
2022/10/29 11:52:13;;;;;;;5.38;4.88;;;22.60;99.90;;;;;;6224009;23;20135;-66
2022/10/29 11:55:01;;;;;;;12.10;5.55;;;22.70;99.90;;;;;;6223793;23;20181;-66
2022/10/29 11:57:46;;;;;;;7.43;5.15;;;22.90;99.90;;;;;;6223919;23;20472;-66
2022/10/29 12:00:23;;;;;;;7.97;4.45;;;23.10;99.90;;;;;;6223614;23;20182;-66
2022/10/29 12:03:23;;;;;;;11.85;5.53;;;23.20;99.90;;;;;;6223981;23;20146;-66
2022/10/29 12:05:52;;;;;;;5.65;5.00;;;23.50;99.90;;;;;;6223953;23;20131;-66
2022/10/29 12:08:36;;;;;;;7.35;5.25;;;23.60;99.90;;;;;;6223952;23;20147;-66
2022/10/29 12:11:22;;;;;;;5.38;4.88;;;23.70;99.90;;;;;;6223522;23;20448;-66
2022/10/29 12:14:16;;;;;;;6.03;4.32;;;23.70;99.90;;;;;;6223841;23;20598;-66
2022/10/29 12:16:58;;;;;;;5.18;4.78;;;23.70;99.90;;;;;;6223734;23;20261;-66
2022/10/29 12:19:30;;;;;;;9.02;5.43;;;23.80;99.90;;;;;;6223437;23;20503;-66
2022/10/29 12:22:12;;;;;;;5.38;4.88;;;24.00;99.90;;;;;;6223756;23;20533;-66
2022/10/29 12:24:59;;;;;;;4.70;4.25;;;24.10;99.90;;;;;;6223787;23;20163;-66
2022/10/29 12:28:00;;;;;;;8.90;4.85;;;24.20;99.90;;;;;;6223848;23;20147;-66
2022/10/29 12:30:30;;;;;;;7.97;4.88;;;24.40;99.90;;;;;;6223272;23;20524;-66
2022/10/29 12:32:58;;;;;;;15.18;4.70;;;24.60;99.90;;;;;;6224150;23;20143;-66
2022/10/29 12:35:42;;;;;;;9.52;4.10;;;24.80;99.90;;;;;;6223664;23;20197;-66
2022/10/29 12:38:40;;;;;;;9.80;4.38;;;25.00;99.90;;;;;;6223649;23;20165;-66
2022/10/29 12:41:36;;;;;;;5.28;4.88;;;25.10;99.90;;;;;;6223161;23;20151;-66
2022/10/29 12:44:35;;;;;;;5.38;4.88;;;24.70;99.90;;;;;;6223805;23;20131;-66
2022/10/29 12:47:19;;;;;;;5.68;4.53;;;24.40;99.90;;;;;;6223835;23;20438;-66
2022/10/29 12:50:05;;;;;;;10.02;4.15;;;24.30;99.90;;;;;;6223064;23;20652;-66
2022/10/29 12:52:43;;;;;;;8.30;5.13;;;24.10;99.90;;;;;;6223527;23;20135;-66
2022/10/29 12:55:12;;;;;;;8.80;5.22;;;23.80;99.90;;;;;;6223625;23;20210;-66
2022/10/29 12:57:37;;;;;;;6.72;5.95;;;23.70;99.90;;;;;;6223383;23;20154;-66
2022/10/29 13:00:21;;;;;;;6.57;4.53;;;23.60;99.90;;;;;;6223227;23;20171;-66
2022/10/29 13:02:49;;;;;;;8.93;4.85;;;23.40;99.90;;;;;;6223993;23;20146;-66
2022/10/29 13:05:17;;;;;;;8.15;4.93;;;23.30;99.90;;;;;;6225695;23;20147;-65